createdAt,value
2023-09-25T00:00:43.338Z,11.87
2023-09-25T00:01:43.034Z,11.86
2023-09-25T00:02:43.260Z,11.84
2023-09-25T00:03:43.391Z,11.83
2023-09-25T00:04:43.100Z,11.82
2023-09-25T00:05:43.217Z,11.81
2023-09-25T00:06:43.090Z,11.81
2023-09-25T00:07:42.957Z,11.81
2023-09-25T00:08:43.266Z,11.81
2023-09-25T00:09:42.950Z,11.80
2023-09-25T00:10:42.922Z,11.79
2023-09-25T00:11:43.275Z,11.78
2023-09-25T00:12:42.944Z,11.78
2023-09-25T00:13:42.898Z,11.77
2023-09-25T00:14:43.254Z,11.76
2023-09-25T00:15:42.969Z,11.75
2023-09-25T00:16:42.888Z,11.74
2023-09-25T00:17:43.017Z,11.73
2023-09-25T00:18:42.949Z,11.72
2023-09-25T00:19:42.827Z,11.71
2023-09-25T00:20:42.814Z,11.71
2023-09-25T00:21:42.896Z,11.70
2023-09-25T00:22:42.823Z,11.70
2023-09-25T00:23:43.218Z,11.69
2023-09-25T00:24:42.772Z,11.68
2023-09-25T00:25:42.776Z,11.68
2023-09-25T00:26:42.877Z,11.67
2023-09-25T00:27:42.831Z,11.66
2023-09-25T00:28:42.704Z,11.65
2023-09-25T00:29:42.715Z,11.64
2023-09-25T00:30:42.745Z,11.64
2023-09-25T00:31:42.772Z,11.63
2023-09-25T00:32:42.764Z,11.62
2023-09-25T00:33:42.752Z,11.61
2023-09-25T00:34:42.849Z,11.61
2023-09-25T00:35:42.833Z,11.60
2023-09-25T00:36:42.803Z,11.60
2023-09-25T00:37:42.820Z,11.60
2023-09-25T00:38:42.967Z,11.60
2023-09-25T00:39:42.944Z,11.60
2023-09-25T00:40:42.574Z,11.60
2023-09-25T00:41:42.623Z,11.60
2023-09-25T00:42:42.950Z,11.60
2023-09-25T00:43:42.551Z,11.60
2023-09-25T00:44:42.590Z,11.60
2023-09-25T00:45:42.585Z,11.60
2023-09-25T00:46:42.542Z,11.60
2023-09-25T00:47:42.908Z,11.60
2023-09-25T00:48:42.538Z,11.60
2023-09-25T00:49:43.150Z,11.59
2023-09-25T00:50:42.816Z,11.60
2023-09-25T00:51:42.481Z,11.60
2023-09-25T00:52:42.879Z,11.60
2023-09-25T00:53:42.777Z,11.60
2023-09-25T00:54:43.199Z,11.60
2023-09-25T00:55:42.876Z,11.60
2023-09-25T00:56:43.289Z,11.60
2023-09-25T00:57:43.350Z,11.59
2023-09-25T00:58:42.391Z,11.59
2023-09-25T00:59:42.656Z,11.58
2023-09-25T01:00:42.935Z,11.57
2023-09-25T01:01:42.645Z,11.56
2023-09-25T01:02:42.455Z,11.55
2023-09-25T01:03:42.348Z,11.54
2023-09-25T01:04:42.316Z,11.53
2023-09-25T01:05:42.323Z,11.52
2023-09-25T01:06:42.303Z,11.51
2023-09-25T01:07:42.284Z,11.50
2023-09-25T01:08:42.337Z,11.49
2023-09-25T01:09:42.267Z,11.47
2023-09-25T01:10:42.253Z,11.46
2023-09-25T01:11:42.226Z,11.44
2023-09-25T01:12:42.273Z,11.43
2023-09-25T01:13:42.189Z,11.41
2023-09-25T01:14:42.221Z,11.40
2023-09-25T01:15:42.386Z,11.40
2023-09-25T01:16:42.238Z,11.39
2023-09-25T01:17:42.162Z,11.39
2023-09-25T01:18:42.343Z,11.38
2023-09-25T01:19:42.130Z,11.38
2023-09-25T01:20:42.142Z,11.38
2023-09-25T01:21:42.170Z,11.38
2023-09-25T01:22:42.174Z,11.38
2023-09-25T01:23:42.082Z,11.38
2023-09-25T01:24:42.291Z,11.38
2023-09-25T01:25:42.070Z,11.38
2023-09-25T01:26:42.068Z,11.38
2023-09-25T01:27:42.084Z,11.38
2023-09-25T01:28:42.048Z,11.38
2023-09-25T01:29:42.033Z,11.38
2023-09-25T01:30:42.363Z,11.38
2023-09-25T01:31:41.991Z,11.37
2023-09-25T01:32:42.016Z,11.35
2023-09-25T01:33:42.101Z,11.34
2023-09-25T01:34:42.360Z,11.33
2023-09-25T01:35:41.965Z,11.32
2023-09-25T01:36:42.133Z,11.30
2023-09-25T01:37:41.918Z,11.29
2023-09-25T01:38:42.341Z,11.28
2023-09-25T01:39:42.371Z,11.26
2023-09-25T01:40:41.917Z,11.25
2023-09-25T01:41:41.862Z,11.24
2023-09-25T01:42:42.385Z,11.23
2023-09-25T01:43:42.329Z,11.22
2023-09-25T01:44:41.853Z,11.22
2023-09-25T01:45:41.885Z,11.21
2023-09-25T01:46:42.370Z,11.21
2023-09-25T01:47:41.825Z,11.20
2023-09-25T01:48:42.199Z,11.20
2023-09-25T01:49:41.841Z,11.19
2023-09-25T01:50:41.808Z,11.20
2023-09-25T01:51:42.159Z,11.20
2023-09-25T01:52:41.791Z,11.20
2023-09-25T01:53:41.756Z,11.20
2023-09-25T01:54:42.402Z,11.20
2023-09-25T01:55:41.740Z,11.20
2023-09-25T01:56:41.723Z,11.20
2023-09-25T01:57:41.878Z,11.20
2023-09-25T01:58:41.702Z,11.19
2023-09-25T01:59:41.668Z,11.19
2023-09-25T02:00:41.737Z,11.19
2023-09-25T02:01:41.671Z,11.18
2023-09-25T02:02:41.936Z,11.17
2023-09-25T02:03:41.939Z,11.18
2023-09-25T02:04:42.171Z,11.18
2023-09-25T02:05:41.783Z,11.19
2023-09-25T02:06:41.835Z,11.19
2023-09-25T02:07:42.354Z,11.20
2023-09-25T02:08:41.586Z,11.20
2023-09-25T02:09:41.589Z,11.20
2023-09-25T02:10:41.861Z,11.20
2023-09-25T02:11:41.530Z,11.20
2023-09-25T02:12:41.601Z,11.20
2023-09-25T02:13:41.608Z,11.20
2023-09-25T02:14:41.511Z,11.20
2023-09-25T02:15:41.720Z,11.20
2023-09-25T02:16:41.584Z,11.20
2023-09-25T02:17:41.496Z,11.20
2023-09-25T02:18:41.777Z,11.20
2023-09-25T02:19:41.443Z,11.19
2023-09-25T02:20:41.510Z,11.19
2023-09-25T02:21:41.430Z,11.18
2023-09-25T02:22:41.842Z,11.18
2023-09-25T02:23:41.394Z,11.17
2023-09-25T02:24:41.434Z,11.16
2023-09-25T02:25:41.390Z,11.14
2023-09-25T02:26:41.379Z,11.13
2023-09-25T02:27:41.400Z,11.12
2023-09-25T02:28:41.387Z,11.12
2023-09-25T02:29:41.330Z,11.11
2023-09-25T02:30:41.403Z,11.11
2023-09-25T02:31:41.374Z,11.11
2023-09-25T02:32:41.362Z,11.11
2023-09-25T02:33:41.331Z,11.10
2023-09-25T02:34:41.795Z,11.09
2023-09-25T02:35:41.269Z,11.08
2023-09-25T02:36:41.313Z,11.06
2023-09-25T02:37:41.243Z,11.05
2023-09-25T02:38:41.299Z,11.04
2023-09-25T02:39:41.231Z,11.04
2023-09-25T02:40:41.257Z,11.03
2023-09-25T02:41:41.198Z,11.02
2023-09-25T02:42:41.222Z,11.01
2023-09-25T02:43:41.191Z,11.00
2023-09-25T02:44:41.240Z,10.99
2023-09-25T02:45:41.230Z,10.98
2023-09-25T02:46:41.281Z,10.98
2023-09-25T02:47:41.128Z,10.98
2023-09-25T02:48:41.198Z,10.97
2023-09-25T02:49:41.299Z,10.96
2023-09-25T02:50:41.115Z,10.94
2023-09-25T02:51:41.153Z,10.93
2023-09-25T02:52:41.334Z,10.92
2023-09-25T02:53:41.054Z,10.91
2023-09-25T02:54:41.123Z,10.90
2023-09-25T02:55:41.401Z,10.89
2023-09-25T02:56:41.052Z,10.89
2023-09-25T02:57:41.165Z,10.88
2023-09-25T02:58:41.521Z,10.88
2023-09-25T02:59:41.399Z,10.88
2023-09-25T03:00:41.025Z,10.88
2023-09-25T03:01:40.996Z,10.88
2023-09-25T03:02:41.150Z,10.87
2023-09-25T03:03:40.960Z,10.86
2023-09-25T03:04:41.156Z,10.84
2023-09-25T03:05:40.977Z,10.83
2023-09-25T03:06:40.991Z,10.81
2023-09-25T03:07:40.910Z,10.80
2023-09-25T03:08:40.916Z,10.78
2023-09-25T03:09:40.935Z,10.75
2023-09-25T03:10:41.186Z,10.73
2023-09-25T03:11:40.862Z,10.71
2023-09-25T03:12:40.856Z,10.69
2023-09-25T03:13:40.839Z,10.66
2023-09-25T03:14:41.303Z,10.64
2023-09-25T03:15:40.886Z,10.63
2023-09-25T03:16:40.820Z,10.61
2023-09-25T03:17:40.803Z,10.60
2023-09-25T03:18:40.825Z,10.59
2023-09-25T03:19:40.762Z,10.58
2023-09-25T03:20:40.767Z,10.57
2023-09-25T03:21:40.779Z,10.56
2023-09-25T03:22:41.499Z,10.54
2023-09-25T03:23:40.707Z,10.53
2023-09-25T03:24:41.543Z,10.52
2023-09-25T03:25:40.719Z,10.52
2023-09-25T03:26:40.690Z,10.51
2023-09-25T03:27:40.828Z,10.50
2023-09-25T03:28:40.690Z,10.49
2023-09-25T03:29:40.652Z,10.49
2023-09-25T03:30:41.481Z,10.48
2023-09-25T03:31:40.714Z,10.47
2023-09-25T03:32:41.135Z,10.47
2023-09-25T03:33:40.638Z,10.46
2023-09-25T03:34:41.147Z,10.45
2023-09-25T03:35:40.575Z,10.44
2023-09-25T03:36:40.662Z,10.43
2023-09-25T03:37:40.572Z,10.41
2023-09-25T03:38:40.899Z,10.40
2023-09-25T03:39:40.716Z,10.39
2023-09-25T03:40:41.450Z,10.37
2023-09-25T03:41:40.514Z,10.36
2023-09-25T03:42:40.633Z,10.34
2023-09-25T03:43:40.487Z,10.33
2023-09-25T03:44:40.500Z,10.32
2023-09-25T03:45:40.510Z,10.31
2023-09-25T03:46:40.874Z,10.30
2023-09-25T03:47:40.495Z,10.29
2023-09-25T03:48:40.526Z,10.29
2023-09-25T03:49:40.821Z,10.28
2023-09-25T03:50:40.459Z,10.28
2023-09-25T03:51:40.517Z,10.26
2023-09-25T03:52:40.413Z,10.25
2023-09-25T03:53:40.398Z,10.25
2023-09-25T03:54:40.521Z,10.24
2023-09-25T03:55:40.338Z,10.23
2023-09-25T03:56:40.471Z,10.22
2023-09-25T03:57:40.373Z,10.22
2023-09-25T03:58:40.313Z,10.21
2023-09-25T03:59:40.455Z,10.20
2023-09-25T04:00:40.393Z,10.20
2023-09-25T04:01:40.289Z,10.19
2023-09-25T04:02:40.592Z,10.19
2023-09-25T04:03:40.374Z,10.18
2023-09-25T04:04:40.698Z,10.18
2023-09-25T04:05:40.250Z,10.18
2023-09-25T04:06:40.256Z,10.18
2023-09-25T04:07:40.218Z,10.18
2023-09-25T04:08:40.228Z,10.18
2023-09-25T04:09:40.497Z,10.18
2023-09-25T04:10:40.204Z,10.18
2023-09-25T04:11:40.149Z,10.18
2023-09-25T04:12:40.206Z,10.19
2023-09-25T04:13:40.142Z,10.19
2023-09-25T04:14:40.490Z,10.20
2023-09-25T04:15:40.119Z,10.21
2023-09-25T04:16:40.180Z,10.22
2023-09-25T04:17:40.734Z,10.23
2023-09-25T04:18:40.636Z,10.23
2023-09-25T04:19:40.217Z,10.24
2023-09-25T04:20:40.307Z,10.24
2023-09-25T04:21:40.074Z,10.24
2023-09-25T04:22:40.487Z,10.25
2023-09-25T04:23:40.487Z,10.25
2023-09-25T04:24:40.065Z,10.25
2023-09-25T04:25:40.186Z,10.25
2023-09-25T04:26:40.490Z,10.25
2023-09-25T04:27:40.619Z,10.25
2023-09-25T04:28:40.007Z,10.25
2023-09-25T04:29:39.981Z,10.25
2023-09-25T04:30:40.676Z,10.25
2023-09-25T04:31:39.995Z,10.25
2023-09-25T04:32:40.391Z,10.25
2023-09-25T04:33:39.968Z,10.25
2023-09-25T04:34:40.441Z,10.24
2023-09-25T04:35:39.872Z,10.23
2023-09-25T04:36:40.579Z,10.22
2023-09-25T04:37:39.866Z,10.21
2023-09-25T04:38:40.504Z,10.19
2023-09-25T04:39:39.880Z,10.18
2023-09-25T04:40:40.928Z,10.17
2023-09-25T04:41:40.508Z,10.16
2023-09-25T04:42:40.562Z,10.16
2023-09-25T04:43:39.823Z,10.15
2023-09-25T04:44:39.816Z,10.14
2023-09-25T04:45:39.866Z,10.14
2023-09-25T04:46:39.903Z,10.13
2023-09-25T04:47:39.754Z,10.12
2023-09-25T04:48:39.909Z,10.12
2023-09-25T04:49:39.785Z,10.11
2023-09-25T04:50:40.000Z,10.10
2023-09-25T04:51:39.865Z,10.09
2023-09-25T04:52:40.060Z,10.08
2023-09-25T04:53:39.776Z,10.08
2023-09-25T04:54:39.812Z,10.07
2023-09-25T04:55:39.677Z,10.07
2023-09-25T04:56:39.747Z,10.07
2023-09-25T04:57:40.336Z,10.07
2023-09-25T04:58:40.284Z,10.07
2023-09-25T04:59:39.815Z,10.07
2023-09-25T05:00:40.327Z,10.06
2023-09-25T05:01:39.646Z,10.05
2023-09-25T05:02:40.350Z,10.03
2023-09-25T05:03:41.027Z,10.01
2023-09-25T05:04:39.558Z,10.00
2023-09-25T05:05:39.548Z,9.99
2023-09-25T05:06:39.650Z,9.97
2023-09-25T05:07:39.507Z,9.96
2023-09-25T05:08:39.530Z,9.96
2023-09-25T05:09:39.510Z,9.96
2023-09-25T05:10:39.496Z,9.96
2023-09-25T05:11:39.498Z,9.96
2023-09-25T05:12:39.540Z,9.97
2023-09-25T05:13:39.464Z,9.97
2023-09-25T05:14:39.451Z,9.97
2023-09-25T05:15:39.481Z,9.97
2023-09-25T05:16:39.447Z,9.97
2023-09-25T05:17:39.502Z,9.98
2023-09-25T05:18:39.461Z,9.97
2023-09-25T05:19:39.432Z,9.97
2023-09-25T05:20:39.377Z,9.96
2023-09-25T05:21:39.429Z,9.96
2023-09-25T05:22:39.360Z,9.95
2023-09-25T05:23:39.349Z,9.95
2023-09-25T05:24:39.358Z,9.94
2023-09-25T05:25:39.318Z,9.93
2023-09-25T05:26:39.319Z,9.92
2023-09-25T05:27:39.396Z,9.91
2023-09-25T05:28:39.285Z,9.90
2023-09-25T05:29:39.261Z,9.90
2023-09-25T05:30:39.615Z,9.90
2023-09-25T05:31:39.281Z,9.90
2023-09-25T05:32:39.265Z,9.90
2023-09-25T05:33:39.295Z,9.90
2023-09-25T05:34:39.206Z,9.91
2023-09-25T05:35:39.217Z,9.92
2023-09-25T05:36:39.263Z,9.92
2023-09-25T05:37:39.209Z,9.93
2023-09-25T05:38:39.293Z,9.94
2023-09-25T05:39:39.210Z,9.95
2023-09-25T05:40:39.127Z,9.94
2023-09-25T05:41:39.166Z,9.95
2023-09-25T05:42:39.147Z,9.96
2023-09-25T05:43:39.105Z,9.96
2023-09-25T05:44:39.105Z,9.97
2023-09-25T05:45:39.113Z,9.97
2023-09-25T05:46:39.114Z,9.97
2023-09-25T05:47:39.077Z,9.98
2023-09-25T05:48:39.580Z,9.99
2023-09-25T05:49:39.073Z,10.00
2023-09-25T05:50:39.009Z,10.01
2023-09-25T05:51:39.097Z,10.03
2023-09-25T05:52:38.989Z,10.05
2023-09-25T05:53:39.000Z,10.06
2023-09-25T05:54:39.027Z,10.07
2023-09-25T05:55:38.978Z,10.08
2023-09-25T05:56:38.942Z,10.09
2023-09-25T05:57:39.014Z,10.11
2023-09-25T05:58:38.925Z,10.12
2023-09-25T05:59:38.962Z,10.13
2023-09-25T06:00:39.966Z,10.12
2023-09-25T06:01:38.962Z,10.12
2023-09-25T06:02:39.620Z,10.12
2023-09-25T06:03:38.977Z,10.12
2023-09-25T06:04:38.975Z,10.12
2023-09-25T06:05:38.865Z,10.12
2023-09-25T06:06:38.867Z,10.13
2023-09-25T06:07:38.838Z,10.14
2023-09-25T06:08:38.810Z,10.15
2023-09-25T06:09:38.861Z,10.17
2023-09-25T06:10:38.817Z,10.17
2023-09-25T06:11:38.790Z,10.17
2023-09-25T06:12:38.822Z,10.19
2023-09-25T06:13:38.788Z,10.20
2023-09-25T06:14:38.737Z,10.21
2023-09-25T06:15:38.969Z,10.22
2023-09-25T06:16:38.784Z,10.23
2023-09-25T06:17:38.791Z,10.24
2023-09-25T06:18:38.713Z,10.25
2023-09-25T06:19:38.716Z,10.25
2023-09-25T06:20:38.691Z,10.26
2023-09-25T06:21:38.710Z,10.26
2023-09-25T06:22:39.597Z,10.26
2023-09-25T06:23:38.662Z,10.27
2023-09-25T06:24:38.701Z,10.27
2023-09-25T06:25:38.657Z,10.28
2023-09-25T06:26:38.649Z,10.28
2023-09-25T06:27:38.656Z,10.30
2023-09-25T06:28:38.573Z,10.31
2023-09-25T06:29:38.613Z,10.33
2023-09-25T06:30:38.609Z,10.36
2023-09-25T06:31:53.785Z,10.38
2023-09-25T06:32:39.627Z,10.40
2023-09-25T06:33:38.640Z,10.43
2023-09-25T06:34:38.628Z,10.47
2023-09-25T06:35:38.563Z,10.50
2023-09-25T06:36:38.582Z,10.53
2023-09-25T06:37:40.121Z,10.55
2023-09-25T06:38:38.462Z,10.57
2023-09-25T06:39:38.493Z,10.58
2023-09-25T06:40:38.433Z,10.60
2023-09-25T06:41:38.490Z,10.63
2023-09-25T06:42:38.462Z,10.67
2023-09-25T06:43:38.422Z,10.71
2023-09-25T06:44:38.377Z,10.75
2023-09-25T06:45:38.455Z,10.80
2023-09-25T06:46:38.409Z,10.83
2023-09-25T06:47:38.806Z,10.87
2023-09-25T06:48:38.423Z,10.92
2023-09-25T06:49:38.338Z,10.98
2023-09-25T06:50:38.315Z,11.09
2023-09-25T06:51:38.521Z,11.26
2023-09-25T06:52:38.293Z,11.47
2023-09-25T06:53:38.315Z,11.67
2023-09-25T06:54:38.326Z,11.81
2023-09-25T06:55:38.276Z,11.91
2023-09-25T06:56:38.246Z,11.98
2023-09-25T06:57:38.286Z,12.06
2023-09-25T06:58:38.233Z,12.19
2023-09-25T06:59:38.240Z,12.30
2023-09-25T07:00:50.714Z,12.38
2023-09-25T07:01:39.297Z,12.43
2023-09-25T07:02:38.181Z,12.52
2023-09-25T07:03:38.285Z,12.65
2023-09-25T07:04:38.286Z,12.76
2023-09-25T07:05:38.243Z,12.87
2023-09-25T07:06:38.183Z,13.00
2023-09-25T07:07:38.123Z,13.16
2023-09-25T07:08:38.138Z,13.36
2023-09-25T07:09:38.187Z,13.60
2023-09-25T07:10:38.110Z,13.82
2023-09-25T07:11:38.104Z,14.02
2023-09-25T07:12:38.151Z,14.24
2023-09-25T07:13:38.084Z,14.49
2023-09-25T07:14:38.058Z,14.74
2023-09-25T07:15:38.126Z,14.97
2023-09-25T07:16:38.072Z,15.18
2023-09-25T07:17:38.112Z,15.39
2023-09-25T07:18:38.025Z,15.60
2023-09-25T07:19:37.999Z,15.79
2023-09-25T07:20:38.007Z,15.94
2023-09-25T07:21:38.064Z,16.07
2023-09-25T07:22:37.981Z,16.20
2023-09-25T07:23:38.161Z,16.35
2023-09-25T07:24:37.969Z,16.53
2023-09-25T07:25:37.938Z,16.69
2023-09-25T07:26:37.897Z,16.82
2023-09-25T07:27:38.027Z,16.93
2023-09-25T07:28:38.385Z,17.01
2023-09-25T07:29:41.854Z,17.09
2023-09-25T07:30:37.919Z,17.18
2023-09-25T07:31:37.905Z,17.28
2023-09-25T07:32:37.900Z,17.38
2023-09-25T07:33:37.887Z,17.41
2023-09-25T07:34:37.815Z,17.37
2023-09-25T07:35:37.818Z,17.32
2023-09-25T07:36:38.575Z,17.28
2023-09-25T07:37:37.839Z,17.25
2023-09-25T07:38:37.786Z,17.22
2023-09-25T07:39:37.858Z,17.23
2023-09-25T07:40:37.760Z,17.22
2023-09-25T07:41:37.792Z,17.21
2023-09-25T07:42:37.763Z,17.21
2023-09-25T07:43:51.111Z,17.27
2023-09-25T07:44:38.782Z,17.34
2023-09-25T07:45:37.744Z,17.35
2023-09-25T07:46:37.765Z,17.32
2023-09-25T07:47:37.723Z,17.32
2023-09-25T07:48:37.761Z,17.32
2023-09-25T07:49:37.685Z,17.31
2023-09-25T07:50:37.635Z,17.26
2023-09-25T07:51:37.689Z,17.18
2023-09-25T07:52:37.623Z,17.11
2023-09-25T07:53:37.626Z,17.05
2023-09-25T07:54:37.618Z,16.97
2023-09-25T07:55:37.603Z,16.90
2023-09-25T07:56:37.572Z,16.90
2023-09-25T07:57:37.638Z,16.96
2023-09-25T07:58:37.574Z,17.04
2023-09-25T07:59:37.563Z,17.13
2023-09-25T08:00:37.576Z,17.19
2023-09-25T08:01:37.568Z,17.27
2023-09-25T08:02:37.583Z,17.39
2023-09-25T08:03:37.606Z,17.50
2023-09-25T08:04:37.547Z,17.60
2023-09-25T08:05:37.735Z,17.69
2023-09-25T08:06:37.474Z,17.77
2023-09-25T08:07:37.466Z,17.85
2023-09-25T08:08:37.480Z,17.89
2023-09-25T08:09:37.603Z,17.90
2023-09-25T08:10:37.438Z,17.92
2023-09-25T08:11:37.440Z,17.96
2023-09-25T08:12:37.404Z,18.02
2023-09-25T08:13:37.417Z,18.10
2023-09-25T08:14:37.375Z,18.16
2023-09-25T08:15:37.425Z,18.19
2023-09-25T08:16:37.383Z,18.19
2023-09-25T08:17:37.388Z,18.16
2023-09-25T08:18:37.370Z,18.17
2023-09-25T08:19:37.454Z,18.19
2023-09-25T08:20:37.385Z,18.19
2023-09-25T08:21:37.352Z,18.13
2023-09-25T08:22:37.280Z,18.04
2023-09-25T08:23:37.282Z,17.96
2023-09-25T08:24:37.289Z,17.91
2023-09-25T08:25:37.300Z,17.89
2023-09-25T08:26:37.240Z,17.86
2023-09-25T08:27:37.311Z,17.84
2023-09-25T08:28:37.235Z,17.84
2023-09-25T08:29:37.224Z,17.84
2023-09-25T08:30:37.319Z,17.83
2023-09-25T08:31:37.285Z,17.87
2023-09-25T08:32:37.251Z,17.94
2023-09-25T08:33:37.261Z,17.97
2023-09-25T08:34:37.155Z,17.97
2023-09-25T08:35:37.159Z,17.94
2023-09-25T08:36:37.190Z,17.90
2023-09-25T08:37:37.127Z,17.85
2023-09-25T08:38:37.100Z,17.78
2023-09-25T08:39:37.216Z,17.68
2023-09-25T08:40:37.097Z,17.58
2023-09-25T08:41:37.095Z,17.50
2023-09-25T08:42:37.781Z,17.45
2023-09-25T08:43:37.077Z,17.40
2023-09-25T08:44:37.029Z,17.34
2023-09-25T08:45:37.244Z,17.29
2023-09-25T08:46:37.073Z,17.24
2023-09-25T08:47:37.039Z,17.23
2023-09-25T08:48:37.033Z,17.22
2023-09-25T08:49:37.727Z,17.19
2023-09-25T08:50:36.971Z,17.15
2023-09-25T08:51:37.081Z,17.12
2023-09-25T08:52:37.158Z,17.09
2023-09-25T08:53:36.971Z,17.06
2023-09-25T08:54:36.972Z,17.02
2023-09-25T08:55:36.951Z,17.00
2023-09-25T08:56:37.741Z,17.02
2023-09-25T08:57:37.790Z,17.07
2023-09-25T08:58:37.662Z,17.15
2023-09-25T08:59:37.371Z,17.19
2023-09-25T09:00:36.889Z,17.19
2023-09-25T09:01:36.959Z,17.17
2023-09-25T09:02:36.878Z,17.13
2023-09-25T09:03:37.177Z,17.11
2023-09-25T09:04:36.922Z,17.10
2023-09-25T09:05:37.280Z,17.09
2023-09-25T09:06:37.067Z,17.08
2023-09-25T09:07:36.775Z,17.09
2023-09-25T09:08:36.760Z,17.09
2023-09-25T09:09:36.820Z,17.07
2023-09-25T09:10:36.796Z,17.07
2023-09-25T09:11:37.009Z,17.08
2023-09-25T09:12:44.380Z,17.08
2023-09-25T09:13:37.722Z,17.10
2023-09-25T09:14:36.693Z,17.12
2023-09-25T09:15:36.717Z,17.12
2023-09-25T09:16:36.711Z,17.12
2023-09-25T09:17:36.960Z,17.16
2023-09-25T09:18:36.661Z,17.22
2023-09-25T09:19:36.671Z,17.29
2023-09-25T09:20:36.865Z,17.35
2023-09-25T09:21:36.757Z,17.38
2023-09-25T09:22:36.598Z,17.40
2023-09-25T09:23:36.620Z,17.39
2023-09-25T09:24:36.639Z,17.37
2023-09-25T09:25:36.588Z,17.34
2023-09-25T09:26:36.572Z,17.32
2023-09-25T09:27:36.588Z,17.32
2023-09-25T09:28:36.530Z,17.33
2023-09-25T09:29:36.532Z,17.34
2023-09-25T09:30:36.585Z,17.34
2023-09-25T09:31:36.520Z,17.34
2023-09-25T09:32:36.511Z,17.35
2023-09-25T09:33:36.571Z,17.34
2023-09-25T09:34:36.615Z,17.34
2023-09-25T09:35:36.484Z,17.35
2023-09-25T09:36:36.529Z,17.35
2023-09-25T09:37:36.442Z,17.38
2023-09-25T09:38:38.052Z,17.40
2023-09-25T09:39:36.544Z,17.42
2023-09-25T09:40:36.412Z,17.42
2023-09-25T09:41:36.382Z,17.41
2023-09-25T09:42:36.424Z,17.39
2023-09-25T09:43:36.377Z,17.38
2023-09-25T09:44:36.388Z,17.41
2023-09-25T09:45:36.454Z,17.43
2023-09-25T09:46:36.461Z,17.44
2023-09-25T09:47:36.877Z,17.43
2023-09-25T09:48:36.330Z,17.43
2023-09-25T09:49:36.321Z,17.43
2023-09-25T09:50:36.306Z,17.43
2023-09-25T09:51:36.347Z,17.42
2023-09-25T09:52:37.568Z,17.40
2023-09-25T09:53:36.280Z,17.39
2023-09-25T09:54:36.329Z,17.38
2023-09-25T09:55:36.244Z,17.36
2023-09-25T09:56:36.281Z,17.34
2023-09-25T09:57:36.473Z,17.32
2023-09-25T09:58:36.211Z,17.32
2023-09-25T09:59:36.373Z,17.34
2023-09-25T10:00:36.278Z,17.38
2023-09-25T10:01:36.327Z,17.42
2023-09-25T10:02:36.322Z,17.44
2023-09-25T10:03:36.473Z,17.46
2023-09-25T10:04:36.233Z,17.47
2023-09-25T10:05:36.872Z,17.48
2023-09-25T10:06:36.155Z,17.49
2023-09-25T10:07:36.707Z,17.49
2023-09-25T10:08:36.106Z,17.49
2023-09-25T10:09:36.126Z,17.47
2023-09-25T10:10:36.062Z,17.46
2023-09-25T10:11:36.056Z,17.45
2023-09-25T10:12:36.066Z,17.43
2023-09-25T10:13:36.014Z,17.42
2023-09-25T10:14:36.010Z,17.41
2023-09-25T10:15:36.983Z,17.41
2023-09-25T10:16:36.068Z,17.42
2023-09-25T10:17:36.344Z,17.43
2023-09-25T10:18:36.014Z,17.45
2023-09-25T10:19:35.972Z,17.46
2023-09-25T10:20:35.957Z,17.46
2023-09-25T10:21:35.987Z,17.45
2023-09-25T10:22:35.926Z,17.44
2023-09-25T10:23:35.920Z,17.44
2023-09-25T10:24:35.952Z,17.44
2023-09-25T10:25:36.803Z,17.45
2023-09-25T10:26:35.900Z,17.45
2023-09-25T10:27:36.612Z,17.44
2023-09-25T10:28:35.856Z,17.43
2023-09-25T10:29:36.614Z,17.43
2023-09-25T10:30:35.882Z,17.43
2023-09-25T10:31:36.804Z,17.43
2023-09-25T10:32:35.879Z,17.44
2023-09-25T10:33:35.876Z,17.44
2023-09-25T10:34:35.869Z,17.45
2023-09-25T10:35:35.780Z,17.46
2023-09-25T10:36:35.837Z,17.47
2023-09-25T10:37:35.919Z,17.48
2023-09-25T10:38:35.800Z,17.49
2023-09-25T10:39:35.856Z,17.51
2023-09-25T10:40:35.818Z,17.54
2023-09-25T10:41:35.818Z,17.56
2023-09-25T10:42:35.731Z,17.57
2023-09-25T10:43:35.671Z,17.57
2023-09-25T10:44:35.699Z,17.58
2023-09-25T10:45:35.772Z,17.59
2023-09-25T10:46:35.706Z,17.59
2023-09-25T10:47:35.687Z,17.59
2023-09-25T10:48:35.683Z,17.60
2023-09-25T10:49:35.635Z,17.61
2023-09-25T10:50:35.617Z,17.63
2023-09-25T10:51:35.623Z,17.64
2023-09-25T10:52:37.042Z,17.64
2023-09-25T10:53:35.566Z,17.63
2023-09-25T10:54:35.650Z,17.63
2023-09-25T10:55:35.531Z,17.64
2023-09-25T10:56:35.538Z,17.64
2023-09-25T10:57:35.553Z,17.64
2023-09-25T10:58:35.522Z,17.65
2023-09-25T10:59:35.522Z,17.65
2023-09-25T11:00:35.550Z,17.66
2023-09-25T11:01:35.514Z,17.66
2023-09-25T11:02:35.459Z,17.67
2023-09-25T11:03:35.923Z,17.68
2023-09-25T11:04:35.655Z,17.69
2023-09-25T11:05:35.427Z,17.71
2023-09-25T11:06:35.446Z,17.72
2023-09-25T11:07:35.416Z,17.73
2023-09-25T11:08:35.398Z,17.75
2023-09-25T11:09:35.454Z,17.75
2023-09-25T11:10:35.431Z,17.75
2023-09-25T11:11:35.529Z,17.76
2023-09-25T11:12:35.378Z,17.77
2023-09-25T11:13:35.395Z,17.79
2023-09-25T11:14:35.335Z,17.80
2023-09-25T11:15:35.355Z,17.82
2023-09-25T11:16:35.353Z,17.84
2023-09-25T11:17:35.302Z,17.86
2023-09-25T11:18:35.392Z,17.86
2023-09-25T11:19:35.286Z,17.87
2023-09-25T11:20:35.264Z,17.87
2023-09-25T11:21:35.334Z,17.89
2023-09-25T11:22:35.262Z,17.89
2023-09-25T11:23:35.245Z,17.90
2023-09-25T11:24:35.239Z,17.91
2023-09-25T11:25:35.192Z,17.92
2023-09-25T11:26:35.211Z,17.93
2023-09-25T11:27:35.259Z,17.94
2023-09-25T11:28:35.184Z,17.96
2023-09-25T11:29:35.872Z,17.98
2023-09-25T11:30:35.890Z,18.01
2023-09-25T11:31:50.092Z,18.03
2023-09-25T11:32:36.177Z,18.04
2023-09-25T11:33:36.110Z,18.05
2023-09-25T11:34:35.163Z,18.06
2023-09-25T11:35:35.114Z,18.09
2023-09-25T11:36:35.139Z,18.11
2023-09-25T11:37:35.050Z,18.12
2023-09-25T11:38:35.069Z,18.12
2023-09-25T11:39:35.179Z,18.13
2023-09-25T11:40:35.031Z,18.14
2023-09-25T11:41:35.008Z,18.16
2023-09-25T11:42:35.419Z,18.18
2023-09-25T11:43:35.347Z,18.19
2023-09-25T11:44:34.985Z,18.22
2023-09-25T11:45:35.409Z,18.24
2023-09-25T11:46:35.002Z,18.26
2023-09-25T11:47:34.995Z,18.28
2023-09-25T11:48:35.503Z,18.30
2023-09-25T11:49:35.493Z,18.33
2023-09-25T11:50:35.532Z,18.36
2023-09-25T11:51:35.571Z,18.39
2023-09-25T11:52:34.927Z,18.42
2023-09-25T11:53:34.984Z,18.45
2023-09-25T11:54:34.935Z,18.48
2023-09-25T11:55:34.871Z,18.51
2023-09-25T11:56:34.904Z,18.53
2023-09-25T11:57:34.961Z,18.54
2023-09-25T11:58:34.851Z,18.56
2023-09-25T11:59:34.882Z,18.57
2023-09-25T12:00:34.859Z,18.59
2023-09-25T12:01:34.927Z,18.61
2023-09-25T12:02:34.785Z,18.63
2023-09-25T12:03:34.833Z,18.65
2023-09-25T12:04:34.881Z,18.68
2023-09-25T12:05:34.889Z,18.69
2023-09-25T12:06:35.905Z,18.71
2023-09-25T12:07:34.766Z,18.74
2023-09-25T12:08:34.900Z,18.76
2023-09-25T12:09:34.922Z,18.79
2023-09-25T12:10:34.697Z,18.80
2023-09-25T12:11:34.691Z,18.81
2023-09-25T12:12:34.730Z,18.83
2023-09-25T12:13:34.661Z,18.84
2023-09-25T12:14:34.684Z,18.86
2023-09-25T12:15:34.938Z,18.88
2023-09-25T12:16:34.788Z,18.91
2023-09-25T12:17:35.049Z,18.93
2023-09-25T12:18:35.119Z,18.94
2023-09-25T12:19:35.002Z,18.94
2023-09-25T12:20:34.616Z,18.95
2023-09-25T12:21:35.128Z,18.96
2023-09-25T12:22:34.563Z,18.98
2023-09-25T12:23:34.965Z,18.99
2023-09-25T12:24:34.612Z,19.01
2023-09-25T12:25:35.358Z,19.03
2023-09-25T12:26:34.514Z,19.04
2023-09-25T12:27:34.648Z,19.06
2023-09-25T12:28:34.615Z,19.08
2023-09-25T12:29:34.549Z,19.08
2023-09-25T12:30:34.641Z,19.09
2023-09-25T12:31:34.877Z,19.11
2023-09-25T12:32:34.481Z,19.12
2023-09-25T12:33:34.734Z,19.14
2023-09-25T12:34:34.451Z,19.15
2023-09-25T12:35:34.389Z,19.17
2023-09-25T12:36:34.435Z,19.17
2023-09-25T12:37:34.814Z,19.18
2023-09-25T12:38:34.407Z,19.18
2023-09-25T12:39:34.656Z,19.19
2023-09-25T12:40:34.937Z,19.21
2023-09-25T12:41:34.326Z,19.21
2023-09-25T12:42:51.279Z,19.21
2023-09-25T12:43:35.490Z,19.22
2023-09-25T12:44:34.297Z,19.22
2023-09-25T12:45:34.401Z,19.23
2023-09-25T12:46:34.295Z,19.24
2023-09-25T12:47:34.332Z,19.25
2023-09-25T12:48:34.415Z,19.26
2023-09-25T12:49:34.322Z,19.26
2023-09-25T12:50:34.878Z,19.26
2023-09-25T12:51:34.266Z,19.27
2023-09-25T12:52:34.232Z,19.27
2023-09-25T12:53:34.316Z,19.28
2023-09-25T12:54:34.231Z,19.30